Kivalina Airport Kivalina US
ICAO: PAVL
IATA:
Category: Medium
Scheduled Services:

Elevation: 13 ft
TransAlt. 18000 ft.

Airport Communications:
ANCHORAGE CNTR:119.2
ASOS:135.8
CTAF/UNICOM:122.8
KOTZEBUE RDO:122.55

PAVL Zoom In..

If you have problems with the map follow the link
https://www.worldairports.se/pages/airport.php?
ICAO=PAVL

Runways:

(A) RW 12 length 3000 ft width 60 ft
---- / hdg 122

(B) RW 30 length 3000 ft width 60 ft
---- / hdg 302

Location; PAVL
Day. 08 / Time. 05.53 Zulu
* Altimeter: 29.22
* Temperature: -05° c. -23°f.
* Wind from: 070° Speed 20 kn.
Dewpoint: -08° c.
Visibility: 8 Statute Miles.
Clouds: Broken 2500 ft.
Clouds: Overcast 3200 ft.

PAVL 080553Z AUTO 07020KT 8SM BKN025 OVC032 M05/M08 A2922 RMK AO2 PK WND 08029/0455 SNE03 SLP895 P0000 60000 T10501078 11050 21072 53003 TSNO $


Wind From 070°
Speed 20 kn.

 
 
jpsmedia worldairports.se 2019   terms of use